sim
Sign-in with your pilot id or email,
or register
Callsign
Passwort

Schedule Details

Flight Number: DLH2513 (1)
Departure: Birmingham Airport (EGBB) at 06:05
Arrival: Munich Airport (EDDM) at 07:50
Route: Lufthansa Passenger Schedule. Enter filed route here before submitting Pirep.

Weather Information
Getting current METAR information for EGBB 221250Z 19008KT CAVOK 22/08 Q1007
Getting current METAR information for EDDM 221250Z 05004KT 010V140 9999 FEW038 24/14 Q1012 NOSIG

Schedule Frequency

Route Map